sensor_id;sensor_type;location;lat;lon;timestamp;temperature;humidity
3053;DHT22;1536;51.098;6.414;2024-01-06T00:02:08;8.90;99.90
3053;DHT22;1536;51.098;6.414;2024-01-06T00:04:35;8.90;99.90
3053;DHT22;1536;51.098;6.414;2024-01-06T00:07:02;8.90;99.90
3053;DHT22;1536;51.098;6.414;2024-01-06T00:09:30;8.90;99.90
3053;DHT22;1536;51.098;6.414;2024-01-06T00:11:56;8.90;99.90
3053;DHT22;1536;51.098;6.414;2024-01-06T00:14:23;8.90;99.90
3053;DHT22;1536;51.098;6.414;2024-01-06T00:16:50;8.90;99.90
3053;DHT22;1536;51.098;6.414;2024-01-06T00:19:17;8.90;99.90
3053;DHT22;1536;51.098;6.414;2024-01-06T00:21:43;9.00;99.90
3053;DHT22;1536;51.098;6.414;2024-01-06T00:24:10;9.00;99.90
3053;DHT22;1536;51.098;6.414;2024-01-06T00:26:39;9.00;99.90
3053;DHT22;1536;51.098;6.414;2024-01-06T00:29:06;9.00;99.90
3053;DHT22;1536;51.098;6.414;2024-01-06T00:31:32;9.00;99.90
3053;DHT22;1536;51.098;6.414;2024-01-06T00:33:59;9.00;99.90
3053;DHT22;1536;51.098;6.414;2024-01-06T00:36:26;9.00;99.90
3053;DHT22;1536;51.098;6.414;2024-01-06T00:38:55;9.00;99.90
3053;DHT22;1536;51.098;6.414;2024-01-06T00:41:22;9.00;99.90
3053;DHT22;1536;51.098;6.414;2024-01-06T00:43:50;9.00;99.90
3053;DHT22;1536;51.098;6.414;2024-01-06T00:46:17;9.00;99.90
3053;DHT22;1536;51.098;6.414;2024-01-06T00:48:44;9.10;99.90
3053;DHT22;1536;51.098;6.414;2024-01-06T00:51:10;9.10;99.90
3053;DHT22;1536;51.098;6.414;2024-01-06T00:53:37;9.00;99.90
3053;DHT22;1536;51.098;6.414;2024-01-06T00:56:04;9.00;99.90
3053;DHT22;1536;51.098;6.414;2024-01-06T00:58:31;9.10;99.90
3053;DHT22;1536;51.098;6.414;2024-01-06T01:00:59;9.00;99.90
3053;DHT22;1536;51.098;6.414;2024-01-06T01:03:26;9.00;99.90
3053;DHT22;1536;51.098;6.414;2024-01-06T01:05:52;9.00;99.90
3053;DHT22;1536;51.098;6.414;2024-01-06T01:08:19;9.10;99.90
3053;DHT22;1536;51.098;6.414;2024-01-06T01:10:46;9.10;99.90
3053;DHT22;1536;51.098;6.414;2024-01-06T01:13:13;9.10;99.90
3053;DHT22;1536;51.098;6.414;2024-01-06T01:15:39;9.10;99.90
3053;DHT22;1536;51.098;6.414;2024-01-06T01:18:07;9.10;99.90
3053;DHT22;1536;51.098;6.414;2024-01-06T01:20:34;9.10;99.90
3053;DHT22;1536;51.098;6.414;2024-01-06T01:23:01;9.10;99.90
3053;DHT22;1536;51.098;6.414;2024-01-06T01:25:28;9.10;99.90
3053;DHT22;1536;51.098;6.414;2024-01-06T01:27:54;9.10;99.90
3053;DHT22;1536;51.098;6.414;2024-01-06T01:30:21;9.10;99.90
3053;DHT22;1536;51.098;6.414;2024-01-06T01:32:48;9.10;99.90
3053;DHT22;1536;51.098;6.414;2024-01-06T01:35:16;9.10;99.90
3053;DHT22;1536;51.098;6.414;2024-01-06T01:37:43;9.10;99.90
3053;DHT22;1536;51.098;6.414;2024-01-06T01:40:10;9.10;99.90
3053;DHT22;1536;51.098;6.414;2024-01-06T01:42:37;9.10;99.90
3053;DHT22;1536;51.098;6.414;2024-01-06T01:45:05;9.10;99.90
3053;DHT22;1536;51.098;6.414;2024-01-06T01:47:31;9.10;99.90
3053;DHT22;1536;51.098;6.414;2024-01-06T01:49:58;9.10;99.90
3053;DHT22;1536;51.098;6.414;2024-01-06T01:52:27;9.10;99.90
3053;DHT22;1536;51.098;6.414;2024-01-06T01:54:54;9.10;99.90
3053;DHT22;1536;51.098;6.414;2024-01-06T01:57:24;9.10;99.90
3053;DHT22;1536;51.098;6.414;2024-01-06T01:59:52;9.10;99.90
3053;DHT22;1536;51.098;6.414;2024-01-06T02:02:20;9.10;99.90
3053;DHT22;1536;51.098;6.414;2024-01-06T02:04:47;9.10;99.90
3053;DHT22;1536;51.098;6.414;2024-01-06T02:07:14;9.10;99.90
3053;DHT22;1536;51.098;6.414;2024-01-06T02:09:42;9.10;99.90
3053;DHT22;1536;51.098;6.414;2024-01-06T02:12:09;9.10;99.90
3053;DHT22;1536;51.098;6.414;2024-01-06T02:14:36;9.10;99.90
3053;DHT22;1536;51.098;6.414;2024-01-06T02:17:03;9.10;99.90
3053;DHT22;1536;51.098;6.414;2024-01-06T02:19:29;9.10;99.90
3053;DHT22;1536;51.098;6.414;2024-01-06T02:21:57;9.10;99.90
3053;DHT22;1536;51.098;6.414;2024-01-06T02:24:24;9.10;99.90
3053;DHT22;1536;51.098;6.414;2024-01-06T02:26:51;9.10;99.90
3053;DHT22;1536;51.098;6.414;2024-01-06T02:29:18;9.10;99.90
3053;DHT22;1536;51.098;6.414;2024-01-06T02:31:44;9.10;99.90
3053;DHT22;1536;51.098;6.414;2024-01-06T02:34:14;9.10;99.90
3053;DHT22;1536;51.098;6.414;2024-01-06T02:36:41;9.10;99.90
3053;DHT22;1536;51.098;6.414;2024-01-06T02:39:09;9.10;99.90
3053;DHT22;1536;51.098;6.414;2024-01-06T02:41:36;9.10;99.90
3053;DHT22;1536;51.098;6.414;2024-01-06T02:44:03;9.10;99.90
3053;DHT22;1536;51.098;6.414;2024-01-06T02:46:35;9.10;99.90
3053;DHT22;1536;51.098;6.414;2024-01-06T02:49:01;9.10;99.90
3053;DHT22;1536;51.098;6.414;2024-01-06T02:51:28;9.10;99.90
3053;DHT22;1536;51.098;6.414;2024-01-06T02:53:55;9.10;99.90
3053;DHT22;1536;51.098;6.414;2024-01-06T02:56:23;9.10;99.90
3053;DHT22;1536;51.098;6.414;2024-01-06T02:58:50;9.10;99.90
3053;DHT22;1536;51.098;6.414;2024-01-06T03:01:17;9.10;99.90
3053;DHT22;1536;51.098;6.414;2024-01-06T03:03:44;9.10;99.90
3053;DHT22;1536;51.098;6.414;2024-01-06T03:06:11;9.10;99.90
3053;DHT22;1536;51.098;6.414;2024-01-06T03:08:37;9.10;99.90
3053;DHT22;1536;51.098;6.414;2024-01-06T03:11:04;9.10;99.90
3053;DHT22;1536;51.098;6.414;2024-01-06T03:13:33;9.10;99.90
3053;DHT22;1536;51.098;6.414;2024-01-06T03:16:03;9.10;99.90
3053;DHT22;1536;51.098;6.414;2024-01-06T03:18:30;9.00;99.90
3053;DHT22;1536;51.098;6.414;2024-01-06T03:20:57;9.00;99.90
3053;DHT22;1536;51.098;6.414;2024-01-06T03:23:24;9.00;99.90
3053;DHT22;1536;51.098;6.414;2024-01-06T03:25:51;9.00;99.90
3053;DHT22;1536;51.098;6.414;2024-01-06T03:28:17;9.00;99.90
3053;DHT22;1536;51.098;6.414;2024-01-06T03:30:45;9.00;99.90
3053;DHT22;1536;51.098;6.414;2024-01-06T03:33:12;9.00;99.90
3053;DHT22;1536;51.098;6.414;2024-01-06T03:35:39;9.00;99.90
3053;DHT22;1536;51.098;6.414;2024-01-06T03:38:06;9.00;99.90
3053;DHT22;1536;51.098;6.414;2024-01-06T03:40:32;9.00;99.90
3053;DHT22;1536;51.098;6.414;2024-01-06T03:42:59;9.00;99.90
3053;DHT22;1536;51.098;6.414;2024-01-06T03:45:26;8.90;99.90
3053;DHT22;1536;51.098;6.414;2024-01-06T03:47:54;8.90;99.90
3053;DHT22;1536;51.098;6.414;2024-01-06T03:50:21;8.90;99.90
3053;DHT22;1536;51.098;6.414;2024-01-06T03:52:47;8.90;99.90
3053;DHT22;1536;51.098;6.414;2024-01-06T03:55:15;8.90;99.90
3053;DHT22;1536;51.098;6.414;2024-01-06T03:57:42;8.90;99.90
3053;DHT22;1536;51.098;6.414;2024-01-06T04:00:09;8.90;99.90
3053;DHT22;1536;51.098;6.414;2024-01-06T04:02:36;8.90;99.90
3053;DHT22;1536;51.098;6.414;2024-01-06T04:05:04;8.80;99.90
3053;DHT22;1536;51.098;6.414;2024-01-06T04:07:31;8.80;99.90
3053;DHT22;1536;51.098;6.414;2024-01-06T04:09:58;8.80;99.90
3053;DHT22;1536;51.098;6.414;2024-01-06T04:12:25;8.80;99.90
3053;DHT22;1536;51.098;6.414;2024-01-06T04:14:51;8.80;99.90
3053;DHT22;1536;51.098;6.414;2024-01-06T04:17:18;8.70;99.90
3053;DHT22;1536;51.098;6.414;2024-01-06T04:19:45;8.70;99.90
3053;DHT22;1536;51.098;6.414;2024-01-06T04:22:13;8.60;99.90
3053;DHT22;1536;51.098;6.414;2024-01-06T04:24:40;8.60;99.90
3053;DHT22;1536;51.098;6.414;2024-01-06T04:27:07;8.50;99.90
3053;DHT22;1536;51.098;6.414;2024-01-06T04:29:35;8.40;99.90
3053;DHT22;1536;51.098;6.414;2024-01-06T04:32:02;8.30;99.90
3053;DHT22;1536;51.098;6.414;2024-01-06T04:34:28;8.30;99.90
3053;DHT22;1536;51.098;6.414;2024-01-06T04:36:55;8.20;99.90
3053;DHT22;1536;51.098;6.414;2024-01-06T04:39:23;8.20;99.90
3053;DHT22;1536;51.098;6.414;2024-01-06T04:41:50;8.20;99.90
3053;DHT22;1536;51.098;6.414;2024-01-06T04:44:20;8.10;99.90
3053;DHT22;1536;51.098;6.414;2024-01-06T04:46:47;8.20;99.90
3053;DHT22;1536;51.098;6.414;2024-01-06T04:49:14;8.10;99.90
3053;DHT22;1536;51.098;6.414;2024-01-06T04:51:41;8.10;99.90
3053;DHT22;1536;51.098;6.414;2024-01-06T04:54:08;8.10;99.90
3053;DHT22;1536;51.098;6.414;2024-01-06T04:56:36;8.10;99.90
3053;DHT22;1536;51.098;6.414;2024-01-06T04:59:02;8.10;99.90
3053;DHT22;1536;51.098;6.414;2024-01-06T05:01:29;8.00;99.90
3053;DHT22;1536;51.098;6.414;2024-01-06T05:03:56;8.00;99.90
3053;DHT22;1536;51.098;6.414;2024-01-06T05:06:23;8.00;99.90
3053;DHT22;1536;51.098;6.414;2024-01-06T05:08:50;8.00;99.90
3053;DHT22;1536;51.098;6.414;2024-01-06T05:11:16;7.90;99.90
3053;DHT22;1536;51.098;6.414;2024-01-06T05:13:45;7.90;99.90
3053;DHT22;1536;51.098;6.414;2024-01-06T05:16:11;7.80;99.90
3053;DHT22;1536;51.098;6.414;2024-01-06T05:18:38;7.70;99.90
3053;DHT22;1536;51.098;6.414;2024-01-06T05:21:05;7.80;99.90
3053;DHT22;1536;51.098;6.414;2024-01-06T05:23:32;7.70;99.90
3053;DHT22;1536;51.098;6.414;2024-01-06T05:25:58;7.70;99.90
3053;DHT22;1536;51.098;6.414;2024-01-06T05:28:25;7.70;99.90
3053;DHT22;1536;51.098;6.414;2024-01-06T05:30:53;7.70;99.90
3053;DHT22;1536;51.098;6.414;2024-01-06T05:33:20;7.70;99.90
3053;DHT22;1536;51.098;6.414;2024-01-06T05:35:50;7.70;99.90
3053;DHT22;1536;51.098;6.414;2024-01-06T05:38:19;7.70;99.90
3053;DHT22;1536;51.098;6.414;2024-01-06T05:40:47;7.70;99.90
3053;DHT22;1536;51.098;6.414;2024-01-06T05:43:14;7.70;99.90
3053;DHT22;1536;51.098;6.414;2024-01-06T05:45:41;7.60;99.90
3053;DHT22;1536;51.098;6.414;2024-01-06T05:48:10;7.60;99.90
3053;DHT22;1536;51.098;6.414;2024-01-06T05:50:37;7.60;99.90
3053;DHT22;1536;51.098;6.414;2024-01-06T05:53:04;7.60;99.90
3053;DHT22;1536;51.098;6.414;2024-01-06T05:55:31;7.60;99.90
3053;DHT22;1536;51.098;6.414;2024-01-06T05:57:58;7.60;99.90
3053;DHT22;1536;51.098;6.414;2024-01-06T06:00:25;7.60;99.90
3053;DHT22;1536;51.098;6.414;2024-01-06T06:02:56;7.60;99.90
3053;DHT22;1536;51.098;6.414;2024-01-06T06:05:25;7.60;99.90
3053;DHT22;1536;51.098;6.414;2024-01-06T06:07:51;7.60;99.90
3053;DHT22;1536;51.098;6.414;2024-01-06T06:10:18;7.60;99.90
3053;DHT22;1536;51.098;6.414;2024-01-06T06:12:45;7.50;99.90
3053;DHT22;1536;51.098;6.414;2024-01-06T06:15:12;7.50;99.90
3053;DHT22;1536;51.098;6.414;2024-01-06T06:17:39;7.50;99.90
3053;DHT22;1536;51.098;6.414;2024-01-06T06:20:06;7.50;99.90
3053;DHT22;1536;51.098;6.414;2024-01-06T06:22:34;7.50;99.90
3053;DHT22;1536;51.098;6.414;2024-01-06T06:25:01;7.50;99.90
3053;DHT22;1536;51.098;6.414;2024-01-06T06:27:29;7.50;99.90
3053;DHT22;1536;51.098;6.414;2024-01-06T06:29:56;7.50;99.90
3053;DHT22;1536;51.098;6.414;2024-01-06T06:32:22;7.50;99.90
3053;DHT22;1536;51.098;6.414;2024-01-06T06:34:50;7.50;99.90
3053;DHT22;1536;51.098;6.414;2024-01-06T06:37:17;7.50;99.90
3053;DHT22;1536;51.098;6.414;2024-01-06T06:39:45;7.40;99.90
3053;DHT22;1536;51.098;6.414;2024-01-06T06:42:11;7.40;99.90
3053;DHT22;1536;51.098;6.414;2024-01-06T06:44:38;7.40;99.90
3053;DHT22;1536;51.098;6.414;2024-01-06T06:47:10;7.40;99.90
3053;DHT22;1536;51.098;6.414;2024-01-06T06:49:37;7.40;99.90
3053;DHT22;1536;51.098;6.414;2024-01-06T06:52:04;7.30;99.90
3053;DHT22;1536;51.098;6.414;2024-01-06T06:54:32;7.30;99.90
3053;DHT22;1536;51.098;6.414;2024-01-06T06:57:00;7.20;99.90
3053;DHT22;1536;51.098;6.414;2024-01-06T06:59:28;7.20;99.90
3053;DHT22;1536;51.098;6.414;2024-01-06T07:01:55;7.20;99.90
3053;DHT22;1536;51.098;6.414;2024-01-06T07:04:22;7.20;99.90
3053;DHT22;1536;51.098;6.414;2024-01-06T07:06:49;7.20;99.90
3053;DHT22;1536;51.098;6.414;2024-01-06T07:09:15;7.20;99.90
3053;DHT22;1536;51.098;6.414;2024-01-06T07:11:42;7.20;99.90
3053;DHT22;1536;51.098;6.414;2024-01-06T07:14:10;7.20;99.90
3053;DHT22;1536;51.098;6.414;2024-01-06T07:16:37;7.10;99.90
3053;DHT22;1536;51.098;6.414;2024-01-06T07:19:05;7.10;99.90
3053;DHT22;1536;51.098;6.414;2024-01-06T07:21:31;7.10;99.90
3053;DHT22;1536;51.098;6.414;2024-01-06T07:23:58;7.10;99.90
3053;DHT22;1536;51.098;6.414;2024-01-06T07:26:26;7.10;99.90
3053;DHT22;1536;51.098;6.414;2024-01-06T07:28:53;7.10;99.90
3053;DHT22;1536;51.098;6.414;2024-01-06T07:31:21;7.10;99.90
3053;DHT22;1536;51.098;6.414;2024-01-06T07:33:48;7.10;99.90
3053;DHT22;1536;51.098;6.414;2024-01-06T07:36:15;7.10;99.90
3053;DHT22;1536;51.098;6.414;2024-01-06T07:38:42;7.00;99.90
3053;DHT22;1536;51.098;6.414;2024-01-06T07:41:11;7.10;99.90
3053;DHT22;1536;51.098;6.414;2024-01-06T07:43:38;7.00;99.90
3053;DHT22;1536;51.098;6.414;2024-01-06T07:46:05;7.00;99.90
3053;DHT22;1536;51.098;6.414;2024-01-06T07:48:33;7.00;99.90
3053;DHT22;1536;51.098;6.414;2024-01-06T07:51:01;7.00;99.90
3053;DHT22;1536;51.098;6.414;2024-01-06T07:53:28;7.00;99.90
3053;DHT22;1536;51.098;6.414;2024-01-06T07:55:55;7.00;99.90
3053;DHT22;1536;51.098;6.414;2024-01-06T07:58:22;7.00;99.90
3053;DHT22;1536;51.098;6.414;2024-01-06T08:00:49;7.00;99.90
3053;DHT22;1536;51.098;6.414;2024-01-06T08:03:16;7.00;99.90
3053;DHT22;1536;51.098;6.414;2024-01-06T08:05:44;7.00;99.90
3053;DHT22;1536;51.098;6.414;2024-01-06T08:08:12;7.00;99.90
3053;DHT22;1536;51.098;6.414;2024-01-06T08:10:42;7.00;99.90
3053;DHT22;1536;51.098;6.414;2024-01-06T08:13:09;7.10;99.90
3053;DHT22;1536;51.098;6.414;2024-01-06T08:15:36;7.10;99.90
3053;DHT22;1536;51.098;6.414;2024-01-06T08:18:03;7.10;99.90
3053;DHT22;1536;51.098;6.414;2024-01-06T08:20:30;7.10;99.90
3053;DHT22;1536;51.098;6.414;2024-01-06T08:22:58;7.20;99.90
3053;DHT22;1536;51.098;6.414;2024-01-06T08:25:25;7.20;99.90
3053;DHT22;1536;51.098;6.414;2024-01-06T08:27:52;7.20;99.90
3053;DHT22;1536;51.098;6.414;2024-01-06T08:30:19;7.30;99.90
3053;DHT22;1536;51.098;6.414;2024-01-06T08:32:45;7.30;99.90
3053;DHT22;1536;51.098;6.414;2024-01-06T08:35:12;7.30;99.90
3053;DHT22;1536;51.098;6.414;2024-01-06T08:37:42;7.30;99.90
3053;DHT22;1536;51.098;6.414;2024-01-06T08:40:11;7.30;99.90
3053;DHT22;1536;51.098;6.414;2024-01-06T08:42:38;7.40;99.90
3053;DHT22;1536;51.098;6.414;2024-01-06T08:45:05;7.40;99.90
3053;DHT22;1536;51.098;6.414;2024-01-06T08:47:32;7.40;99.90
3053;DHT22;1536;51.098;6.414;2024-01-06T08:49:58;7.40;99.90
3053;DHT22;1536;51.098;6.414;2024-01-06T08:52:25;7.40;99.90
3053;DHT22;1536;51.098;6.414;2024-01-06T08:54:52;7.50;99.90
3053;DHT22;1536;51.098;6.414;2024-01-06T08:57:20;7.50;99.90
3053;DHT22;1536;51.098;6.414;2024-01-06T08:59:47;7.50;99.90
3053;DHT22;1536;51.098;6.414;2024-01-06T09:02:14;7.50;99.90
3053;DHT22;1536;51.098;6.414;2024-01-06T09:04:40;7.50;99.90
3053;DHT22;1536;51.098;6.414;2024-01-06T09:07:07;7.60;99.90
3053;DHT22;1536;51.098;6.414;2024-01-06T09:09:36;7.60;99.90
3053;DHT22;1536;51.098;6.414;2024-01-06T09:12:03;7.60;99.90
3053;DHT22;1536;51.098;6.414;2024-01-06T09:14:31;7.60;99.90
3053;DHT22;1536;51.098;6.414;2024-01-06T09:16:58;7.60;99.90
3053;DHT22;1536;51.098;6.414;2024-01-06T09:19:24;7.60;99.90
3053;DHT22;1536;51.098;6.414;2024-01-06T09:21:53;7.60;99.90
3053;DHT22;1536;51.098;6.414;2024-01-06T09:24:20;7.60;99.90
3053;DHT22;1536;51.098;6.414;2024-01-06T09:26:47;7.60;99.90
3053;DHT22;1536;51.098;6.414;2024-01-06T09:29:15;7.60;99.90
3053;DHT22;1536;51.098;6.414;2024-01-06T09:31:43;7.60;99.90
3053;DHT22;1536;51.098;6.414;2024-01-06T09:34:10;7.60;99.90
3053;DHT22;1536;51.098;6.414;2024-01-06T09:36:37;7.60;99.90
3053;DHT22;1536;51.098;6.414;2024-01-06T09:39:04;7.60;99.90
3053;DHT22;1536;51.098;6.414;2024-01-06T09:41:33;7.60;99.90
3053;DHT22;1536;51.098;6.414;2024-01-06T09:44:00;7.60;99.90
3053;DHT22;1536;51.098;6.414;2024-01-06T09:46:28;7.60;99.90
3053;DHT22;1536;51.098;6.414;2024-01-06T09:48:57;7.60;99.90
3053;DHT22;1536;51.098;6.414;2024-01-06T09:51:25;7.60;99.90
3053;DHT22;1536;51.098;6.414;2024-01-06T09:53:56;7.70;99.90
3053;DHT22;1536;51.098;6.414;2024-01-06T09:56:24;7.60;99.90
3053;DHT22;1536;51.098;6.414;2024-01-06T09:58:51;7.70;99.90
3053;DHT22;1536;51.098;6.414;2024-01-06T10:01:19;7.60;99.90
3053;DHT22;1536;51.098;6.414;2024-01-06T10:03:46;7.60;99.90
3053;DHT22;1536;51.098;6.414;2024-01-06T10:06:16;7.60;99.90
3053;DHT22;1536;51.098;6.414;2024-01-06T10:08:43;7.60;99.90
3053;DHT22;1536;51.098;6.414;2024-01-06T10:11:10;7.60;99.90
3053;DHT22;1536;51.098;6.414;2024-01-06T10:13:37;7.60;99.90
3053;DHT22;1536;51.098;6.414;2024-01-06T10:16:04;7.60;99.90
3053;DHT22;1536;51.098;6.414;2024-01-06T10:18:31;7.60;99.90
3053;DHT22;1536;51.098;6.414;2024-01-06T10:20:58;7.60;99.90
3053;DHT22;1536;51.098;6.414;2024-01-06T10:23:28;7.60;99.90
3053;DHT22;1536;51.098;6.414;2024-01-06T10:25:55;7.60;99.90
3053;DHT22;1536;51.098;6.414;2024-01-06T10:28:22;7.50;99.90
3053;DHT22;1536;51.098;6.414;2024-01-06T10:30:51;7.50;99.90
3053;DHT22;1536;51.098;6.414;2024-01-06T10:33:19;7.50;99.90
3053;DHT22;1536;51.098;6.414;2024-01-06T10:35:46;7.50;99.90
3053;DHT22;1536;51.098;6.414;2024-01-06T10:38:13;7.50;99.90
3053;DHT22;1536;51.098;6.414;2024-01-06T10:40:55;7.50;99.90
3053;DHT22;1536;51.098;6.414;2024-01-06T10:43:24;7.50;99.90
3053;DHT22;1536;51.098;6.414;2024-01-06T10:45:51;7.50;99.90
3053;DHT22;1536;51.098;6.414;2024-01-06T10:48:20;7.50;99.90
3053;DHT22;1536;51.098;6.414;2024-01-06T10:50:49;7.50;99.90
3053;DHT22;1536;51.098;6.414;2024-01-06T10:53:17;7.40;99.90
3053;DHT22;1536;51.098;6.414;2024-01-06T10:55:46;7.40;99.90
3053;DHT22;1536;51.098;6.414;2024-01-06T10:58:17;7.40;99.90
3053;DHT22;1536;51.098;6.414;2024-01-06T11:00:44;7.40;99.90
3053;DHT22;1536;51.098;6.414;2024-01-06T11:03:11;7.40;99.90
3053;DHT22;1536;51.098;6.414;2024-01-06T11:05:40;7.40;99.90
3053;DHT22;1536;51.098;6.414;2024-01-06T11:08:07;7.30;99.90
3053;DHT22;1536;51.098;6.414;2024-01-06T11:10:36;7.30;99.90
3053;DHT22;1536;51.098;6.414;2024-01-06T11:13:10;7.30;99.90
3053;DHT22;1536;51.098;6.414;2024-01-06T11:15:48;7.20;99.90
3053;DHT22;1536;51.098;6.414;2024-01-06T11:18:31;7.20;99.90
3053;DHT22;1536;51.098;6.414;2024-01-06T11:21:19;7.10;99.90
3053;DHT22;1536;51.098;6.414;2024-01-06T11:24:13;7.10;99.90
3053;DHT22;1536;51.098;6.414;2024-01-06T11:26:43;7.10;99.90
3053;DHT22;1536;51.098;6.414;2024-01-06T11:29:11;7.10;99.90
3053;DHT22;1536;51.098;6.414;2024-01-06T11:31:38;7.10;99.90
3053;DHT22;1536;51.098;6.414;2024-01-06T11:34:13;7.00;99.90
3053;DHT22;1536;51.098;6.414;2024-01-06T11:36:42;7.10;99.90
3053;DHT22;1536;51.098;6.414;2024-01-06T11:39:35;7.00;99.90
3053;DHT22;1536;51.098;6.414;2024-01-06T11:42:04;7.00;99.90
3053;DHT22;1536;51.098;6.414;2024-01-06T11:44:37;7.00;99.90
3053;DHT22;1536;51.098;6.414;2024-01-06T11:47:04;7.00;99.90
3053;DHT22;1536;51.098;6.414;2024-01-06T11:49:32;7.00;99.90
3053;DHT22;1536;51.098;6.414;2024-01-06T11:51:59;7.00;99.90
3053;DHT22;1536;51.098;6.414;2024-01-06T11:54:26;6.90;99.90
3053;DHT22;1536;51.098;6.414;2024-01-06T11:56:53;6.90;99.90
3053;DHT22;1536;51.098;6.414;2024-01-06T11:59:21;6.90;99.90
3053;DHT22;1536;51.098;6.414;2024-01-06T12:01:49;6.90;99.90
3053;DHT22;1536;51.098;6.414;2024-01-06T12:04:17;6.90;99.90
3053;DHT22;1536;51.098;6.414;2024-01-06T12:06:44;6.90;99.90
3053;DHT22;1536;51.098;6.414;2024-01-06T12:09:12;6.90;99.90
3053;DHT22;1536;51.098;6.414;2024-01-06T12:11:41;6.90;99.90
3053;DHT22;1536;51.098;6.414;2024-01-06T12:14:10;6.80;99.90
3053;DHT22;1536;51.098;6.414;2024-01-06T12:16:37;6.90;99.90
3053;DHT22;1536;51.098;6.414;2024-01-06T12:19:05;6.80;99.90
3053;DHT22;1536;51.098;6.414;2024-01-06T12:21:33;6.80;99.90
3053;DHT22;1536;51.098;6.414;2024-01-06T12:24:15;6.80;99.90
3053;DHT22;1536;51.098;6.414;2024-01-06T12:26:42;6.80;99.90
3053;DHT22;1536;51.098;6.414;2024-01-06T12:29:09;6.80;99.90
3053;DHT22;1536;51.098;6.414;2024-01-06T12:31:37;6.70;99.90
3053;DHT22;1536;51.098;6.414;2024-01-06T12:34:06;6.70;99.90
3053;DHT22;1536;51.098;6.414;2024-01-06T12:36:34;6.70;99.90
3053;DHT22;1536;51.098;6.414;2024-01-06T12:39:03;6.70;99.90
3053;DHT22;1536;51.098;6.414;2024-01-06T12:41:30;6.70;99.90
3053;DHT22;1536;51.098;6.414;2024-01-06T12:43:58;6.60;99.90
3053;DHT22;1536;51.098;6.414;2024-01-06T12:46:26;6.60;99.90
3053;DHT22;1536;51.098;6.414;2024-01-06T12:48:52;6.60;99.90
3053;DHT22;1536;51.098;6.414;2024-01-06T12:51:21;6.60;99.90
3053;DHT22;1536;51.098;6.414;2024-01-06T12:53:48;6.60;99.90
3053;DHT22;1536;51.098;6.414;2024-01-06T12:56:15;6.60;99.90
3053;DHT22;1536;51.098;6.414;2024-01-06T12:58:42;6.60;99.90
3053;DHT22;1536;51.098;6.414;2024-01-06T13:01:09;6.50;99.90
3053;DHT22;1536;51.098;6.414;2024-01-06T13:03:36;6.50;99.90
3053;DHT22;1536;51.098;6.414;2024-01-06T13:06:03;6.40;99.90
3053;DHT22;1536;51.098;6.414;2024-01-06T13:08:31;6.30;99.90
3053;DHT22;1536;51.098;6.414;2024-01-06T13:10:58;6.30;99.90
3053;DHT22;1536;51.098;6.414;2024-01-06T13:13:25;6.40;99.90
3053;DHT22;1536;51.098;6.414;2024-01-06T13:15:52;6.30;99.90
3053;DHT22;1536;51.098;6.414;2024-01-06T13:18:19;6.30;99.90
3053;DHT22;1536;51.098;6.414;2024-01-06T13:20:46;6.30;99.90
3053;DHT22;1536;51.098;6.414;2024-01-06T13:23:13;6.20;99.90
3053;DHT22;1536;51.098;6.414;2024-01-06T13:25:41;6.20;99.90
3053;DHT22;1536;51.098;6.414;2024-01-06T13:28:08;6.10;99.90
3053;DHT22;1536;51.098;6.414;2024-01-06T13:30:35;6.20;99.90
3053;DHT22;1536;51.098;6.414;2024-01-06T13:33:02;6.10;99.90
3053;DHT22;1536;51.098;6.414;2024-01-06T13:35:29;6.10;99.90
3053;DHT22;1536;51.098;6.414;2024-01-06T13:37:57;6.10;99.90
3053;DHT22;1536;51.098;6.414;2024-01-06T13:40:23;6.10;99.90
3053;DHT22;1536;51.098;6.414;2024-01-06T13:42:52;6.10;99.90
3053;DHT22;1536;51.098;6.414;2024-01-06T13:45:19;6.10;99.90
3053;DHT22;1536;51.098;6.414;2024-01-06T13:47:46;6.10;99.90
3053;DHT22;1536;51.098;6.414;2024-01-06T13:50:15;6.10;99.90
3053;DHT22;1536;51.098;6.414;2024-01-06T13:52:42;6.10;99.90
3053;DHT22;1536;51.098;6.414;2024-01-06T13:55:11;6.00;99.90
3053;DHT22;1536;51.098;6.414;2024-01-06T13:57:37;6.00;99.90
3053;DHT22;1536;51.098;6.414;2024-01-06T14:00:08;5.90;99.90
3053;DHT22;1536;51.098;6.414;2024-01-06T14:02:35;5.90;99.90
3053;DHT22;1536;51.098;6.414;2024-01-06T14:05:03;5.90;99.90
3053;DHT22;1536;51.098;6.414;2024-01-06T14:07:33;5.90;99.90
3053;DHT22;1536;51.098;6.414;2024-01-06T14:10:00;5.90;99.90
3053;DHT22;1536;51.098;6.414;2024-01-06T14:12:29;5.90;99.90
3053;DHT22;1536;51.098;6.414;2024-01-06T14:14:56;5.80;99.90
3053;DHT22;1536;51.098;6.414;2024-01-06T14:17:25;5.80;99.90
3053;DHT22;1536;51.098;6.414;2024-01-06T14:19:52;5.80;99.90
3053;DHT22;1536;51.098;6.414;2024-01-06T14:22:19;5.80;99.90
3053;DHT22;1536;51.098;6.414;2024-01-06T14:24:46;5.80;99.90
3053;DHT22;1536;51.098;6.414;2024-01-06T14:27:13;5.80;99.90
3053;DHT22;1536;51.098;6.414;2024-01-06T14:29:40;5.80;99.90
3053;DHT22;1536;51.098;6.414;2024-01-06T14:32:07;5.80;99.90
3053;DHT22;1536;51.098;6.414;2024-01-06T14:34:36;5.90;99.90
3053;DHT22;1536;51.098;6.414;2024-01-06T14:37:03;5.80;99.90
3053;DHT22;1536;51.098;6.414;2024-01-06T14:39:30;5.80;99.90
3053;DHT22;1536;51.098;6.414;2024-01-06T14:41:57;5.70;99.90
3053;DHT22;1536;51.098;6.414;2024-01-06T14:44:24;5.70;99.90
3053;DHT22;1536;51.098;6.414;2024-01-06T14:46:53;5.70;99.90
3053;DHT22;1536;51.098;6.414;2024-01-06T14:49:20;5.60;99.90
3053;DHT22;1536;51.098;6.414;2024-01-06T14:51:48;5.60;99.90
3053;DHT22;1536;51.098;6.414;2024-01-06T14:54:18;5.60;99.90
3053;DHT22;1536;51.098;6.414;2024-01-06T14:56:45;5.60;99.90
3053;DHT22;1536;51.098;6.414;2024-01-06T14:59:12;5.60;99.90
3053;DHT22;1536;51.098;6.414;2024-01-06T15:01:42;5.60;99.90
3053;DHT22;1536;51.098;6.414;2024-01-06T15:04:08;5.60;99.90
3053;DHT22;1536;51.098;6.414;2024-01-06T15:06:35;5.60;99.90
3053;DHT22;1536;51.098;6.414;2024-01-06T15:09:03;5.60;99.90
3053;DHT22;1536;51.098;6.414;2024-01-06T15:11:30;5.60;99.90
3053;DHT22;1536;51.098;6.414;2024-01-06T15:13:57;5.60;99.90
3053;DHT22;1536;51.098;6.414;2024-01-06T15:16:26;5.60;99.90
3053;DHT22;1536;51.098;6.414;2024-01-06T15:18:52;5.50;99.90
3053;DHT22;1536;51.098;6.414;2024-01-06T15:21:21;5.60;99.90
3053;DHT22;1536;51.098;6.414;2024-01-06T15:23:48;5.60;99.90
3053;DHT22;1536;51.098;6.414;2024-01-06T15:26:25;5.60;99.90
3053;DHT22;1536;51.098;6.414;2024-01-06T15:28:55;5.60;99.90
3053;DHT22;1536;51.098;6.414;2024-01-06T15:31:29;5.60;99.90
3053;DHT22;1536;51.098;6.414;2024-01-06T15:33:59;5.60;99.90
3053;DHT22;1536;51.098;6.414;2024-01-06T15:36:26;5.60;99.90
3053;DHT22;1536;51.098;6.414;2024-01-06T15:39:05;5.60;99.90
3053;DHT22;1536;51.098;6.414;2024-01-06T15:41:47;5.50;99.90
3053;DHT22;1536;51.098;6.414;2024-01-06T15:44:14;5.50;99.90
3053;DHT22;1536;51.098;6.414;2024-01-06T15:46:41;5.50;99.90
3053;DHT22;1536;51.098;6.414;2024-01-06T15:49:08;5.50;99.90
3053;DHT22;1536;51.098;6.414;2024-01-06T15:51:35;5.40;99.90
3053;DHT22;1536;51.098;6.414;2024-01-06T15:54:01;5.40;99.90
3053;DHT22;1536;51.098;6.414;2024-01-06T15:56:28;5.40;99.90
3053;DHT22;1536;51.098;6.414;2024-01-06T15:58:57;5.40;99.90
3053;DHT22;1536;51.098;6.414;2024-01-06T16:01:23;5.40;99.90
3053;DHT22;1536;51.098;6.414;2024-01-06T16:03:50;5.50;99.90
3053;DHT22;1536;51.098;6.414;2024-01-06T16:06:18;5.50;99.90
3053;DHT22;1536;51.098;6.414;2024-01-06T16:08:45;5.50;99.90
3053;DHT22;1536;51.098;6.414;2024-01-06T16:11:12;5.50;99.90
3053;DHT22;1536;51.098;6.414;2024-01-06T16:13:39;5.50;99.90
3053;DHT22;1536;51.098;6.414;2024-01-06T16:16:07;5.50;99.90
3053;DHT22;1536;51.098;6.414;2024-01-06T16:18:34;5.50;99.90
3053;DHT22;1536;51.098;6.414;2024-01-06T16:21:01;5.50;99.90